Richfield, Kansas
Current Conditions -  °F | °C
As of 5:53 AM on Monday 24 Nov 2014 (Local Time) from KGUY Reporting Station
Clear Clear  
Wind Chill: 21°   Ceiling: Unl
Heat Index: 30°   Visibility: 10mi
Dew Point: 22°   Wind: 12mph
Humidity: 72%   Direction: 270°W
Pressure: 29.94"   Gusts: NA
Location:  37.27°N, 101.78°W
Report Text: KGUY 241153Z AUTO 27010KT 10SM CLR M01/M06 A2994 RMK AO2 SLP139 T10111056 10033 21011 51003
Loading
Personal Weather Stations






























Interactive Weather Map New forecast layout! Learn more

10-Day Weather Forecast

Advertisements
Track Severe Weather on mobile